Time;durP1;ratioP1;P1;durP2;ratioP2;P2;SDS_P1;SDS_P2;PMS_P1;PMS_P2;Temp;Humidity;BMP_temperature;BMP_pressure;BME280_temperature;BME280_humidity;BME280_pressure;Samples;Min_cycle;Max_cycle;Signal;HPM_P1;HPM_P2
2023/04/28 00:00:46;;;;;;;16.08;6.47;;;;;;;8.38;75.97;101252.44;4876866;29;20029;-77
2023/04/28 00:03:12;;;;;;;13.40;6.13;;;;;;;8.46;76.33;101263.06;4885176;29;20033;-77
2023/04/28 00:05:37;;;;;;;15.73;7.38;;;;;;;8.46;75.55;101257.75;4891572;29;20060;-77
2023/04/28 00:08:03;;;;;;;15.98;6.20;;;;;;;8.45;76.02;101258.75;4876724;29;20482;-77
2023/04/28 00:10:30;;;;;;;15.82;7.03;;;;;;;8.41;77.25;101249.44;4878075;29;20048;-77
2023/04/28 00:12:55;;;;;;;14.00;6.40;;;;;;;8.45;76.14;101259.56;4894599;29;20381;-77
2023/04/28 00:15:21;;;;;;;14.50;6.57;;;;;;;8.32;77.69;101230.84;4894449;29;20032;-77
2023/04/28 00:17:46;;;;;;;15.30;6.97;;;;;;;8.34;77.66;101226.19;4893736;29;20495;-78
2023/04/28 00:20:11;;;;;;;14.68;6.90;;;;;;;8.33;79.00;101232.53;4860106;29;20099;-77
2023/04/28 00:22:37;;;;;;;13.25;5.82;;;;;;;8.28;80.25;101232.22;4876675;29;20040;-77
2023/04/28 00:25:03;;;;;;;15.70;7.38;;;;;;;8.26;80.62;101233.38;4859895;29;20064;-77
2023/04/28 00:27:28;;;;;;;15.73;6.10;;;;;;;8.20;81.70;101226.94;4894081;29;20048;-77
2023/04/28 00:29:54;;;;;;;15.23;6.90;;;;;;;8.22;82.40;101246.16;4884873;29;20145;-77
2023/04/28 00:32:20;;;;;;;16.58;7.20;;;;;;;8.18;82.24;101250.19;4894262;29;20048;-77
2023/04/28 00:34:45;;;;;;;15.80;7.28;;;;;;;8.15;83.20;101237.25;4894404;29;20060;-77
2023/04/28 00:37:10;;;;;;;12.52;6.53;;;;;;;8.12;83.39;101230.44;4894300;29;20068;-77
2023/04/28 00:39:36;;;;;;;14.30;6.72;;;;;;;8.14;83.45;101227.59;4894328;29;20088;-77
2023/04/28 00:42:03;;;;;;;13.93;7.03;;;;;;;8.11;83.66;101226.13;4894362;29;20511;-77
2023/04/28 00:44:28;;;;;;;15.70;6.68;;;;;;;8.05;84.56;101205.56;4880122;29;20122;-77
2023/04/28 00:46:54;;;;;;;15.68;7.38;;;;;;;7.98;85.95;101182.50;4892529;29;20060;-77
2023/04/28 00:49:19;;;;;;;14.35;6.28;;;;;;;8.05;87.93;101210.03;4891790;29;20115;-77
2023/04/28 00:51:45;;;;;;;11.90;6.43;;;;;;;7.97;87.97;101205.59;4883869;29;20029;-77
2023/04/28 00:54:13;;;;;;;17.75;6.32;;;;;;;7.85;89.70;101199.78;4877337;29;20108;-77
2023/04/28 00:56:38;;;;;;;17.05;6.38;;;;;;;7.74;90.32;101200.16;4891908;29;20638;-77
2023/04/28 00:59:04;;;;;;;17.30;6.88;;;;;;;7.67;91.03;101202.66;4873998;29;20077;-77
2023/04/28 01:01:30;;;;;;;17.17;7.65;;;;;;;7.65;92.28;101199.38;4870785;29;20397;-77
2023/04/28 01:03:56;;;;;;;18.08;6.70;;;;;;;7.65;93.01;101190.53;4859909;29;20508;-77
2023/04/28 01:06:22;;;;;;;15.40;6.30;;;;;;;7.68;92.70;101187.59;4854583;29;20040;-79
2023/04/28 01:08:52;;;;;;;14.98;6.90;;;;;;;7.72;93.32;101190.72;4886378;29;20481;-77
2023/04/28 01:11:17;;;;;;;17.83;7.35;;;;;;;7.72;93.12;101188.06;4883734;29;20028;-77
2023/04/28 01:13:42;;;;;;;14.63;6.45;;;;;;;7.71;92.99;101181.09;4884351;29;20441;-77
2023/04/28 01:16:08;;;;;;;15.63;7.35;;;;;;;7.71;93.41;101178.44;4894202;29;20208;-77
2023/04/28 01:18:33;;;;;;;15.50;6.43;;;;;;;7.74;95.82;101178.94;4894020;29;20515;-77
2023/04/28 01:20:59;;;;;;;17.30;7.28;;;;;;;7.69;94.19;101178.59;4889107;29;21004;-77
2023/04/28 01:23:25;;;;;;;15.95;7.15;;;;;;;7.66;95.13;101171.81;4893728;29;20099;-77
2023/04/28 01:25:50;;;;;;;17.17;7.75;;;;;;;7.64;95.43;101165.00;4876919;29;20083;-77
2023/04/28 01:28:16;;;;;;;17.00;7.03;;;;;;;7.67;94.18;101160.19;4877006;29;20028;-77
2023/04/28 01:30:41;;;;;;;13.77;6.88;;;;;;;7.64;95.40;101146.44;4892512;29;20032;-77
2023/04/28 01:33:07;;;;;;;13.77;5.85;;;;;;;7.61;95.30;101144.13;4897328;29;20028;-77
2023/04/28 01:35:32;;;;;;;15.93;6.95;;;;;;;7.58;95.50;101137.31;4884374;29;20084;-77
2023/04/28 01:37:58;;;;;;;14.48;6.45;;;;;;;7.54;96.16;101129.88;4877527;29;20033;-78
2023/04/28 01:40:23;;;;;;;16.23;8.05;;;;;;;7.56;95.57;101143.78;4866754;29;20143;-77
2023/04/28 01:42:49;;;;;;;12.93;6.20;;;;;;;7.55;96.49;101142.16;4897207;29;20365;-77
2023/04/28 01:45:14;;;;;;;20.50;9.05;;;;;;;7.48;96.25;101134.03;4882047;29;20064;-77
2023/04/28 01:47:39;;;;;;;15.85;7.55;;;;;;;7.44;96.15;101135.34;4879222;29;20041;-77
2023/04/28 01:50:05;;;;;;;16.38;7.32;;;;;;;7.46;96.36;101136.00;4883353;29;20040;-77
2023/04/28 01:52:31;;;;;;;16.63;6.68;;;;;;;7.45;97.86;101137.03;4879267;29;20088;-77
2023/04/28 01:54:56;;;;;;;16.67;7.22;;;;;;;7.44;97.95;101133.53;4882586;29;20087;-77
2023/04/28 01:57:22;;;;;;;17.90;6.97;;;;;;;7.44;97.44;101128.25;4895303;29;20053;-77
2023/04/28 01:59:47;;;;;;;16.20;6.95;;;;;;;7.44;97.77;101120.28;4882894;29;20481;-77
2023/04/28 02:02:13;;;;;;;15.40;6.53;;;;;;;7.39;98.29;101109.34;4881984;29;20044;-77
2023/04/28 02:04:38;;;;;;;14.63;6.68;;;;;;;7.43;98.19;101118.59;4878954;29;20095;-77
2023/04/28 02:07:05;;;;;;;15.40;6.35;;;;;;;7.44;97.41;101107.00;4880073;29;20037;-77
2023/04/28 02:09:31;;;;;;;16.33;6.85;;;;;;;7.53;97.44;101104.34;4889955;29;20032;-78
2023/04/28 02:11:56;;;;;;;16.90;6.57;;;;;;;7.55;97.01;101112.97;4896748;29;20033;-77
2023/04/28 02:14:22;;;;;;;15.45;6.28;;;;;;;7.50;96.48;101112.63;4882511;29;20140;-77
2023/04/28 02:16:47;;;;;;;15.43;6.88;;;;;;;7.59;97.45;101124.88;4885918;29;20082;-77
2023/04/28 02:19:14;;;;;;;17.80;7.47;;;;;;;7.56;96.97;101118.06;4883110;29;20497;-77
2023/04/28 02:21:40;;;;;;;17.33;6.75;;;;;;;7.48;100.00;101107.50;4896703;29;20032;-77
2023/04/28 02:24:07;;;;;;;15.63;7.18;;;;;;;7.52;99.30;101113.28;4876033;29;20120;-78
2023/04/28 02:26:33;;;;;;;14.32;6.68;;;;;;;7.45;99.09;101105.19;4882327;29;20066;-78
2023/04/28 02:28:58;;;;;;;18.40;8.25;;;;;;;7.38;99.70;101088.28;4882616;29;20119;-78
2023/04/28 02:31:23;;;;;;;18.00;8.95;;;;;;;7.44;100.00;101098.19;4883366;29;20154;-78
2023/04/28 02:33:49;;;;;;;21.67;7.97;;;;;;;7.41;99.99;101094.09;4882549;29;20060;-78
2023/04/28 02:36:14;;;;;;;16.25;8.73;;;;;;;7.37;100.00;101076.84;4885080;29;20389;-77
2023/04/28 02:38:40;;;;;;;18.17;8.88;;;;;;;7.42;100.00;101079.81;4861824;29;20966;-78
2023/04/28 02:41:08;;;;;;;15.60;6.95;;;;;;;7.42;100.00;101069.19;4894570;29;20057;-78
2023/04/28 02:43:35;;;;;;;17.60;7.85;;;;;;;7.37;100.00;101054.78;4882190;29;20504;-77
2023/04/28 02:46:03;;;;;;;17.98;7.72;;;;;;;7.44;100.00;101061.91;4866297;29;20037;-78
2023/04/28 02:48:28;;;;;;;16.42;8.18;;;;;;;7.46;100.00;101053.75;4878169;29;20036;-77
2023/04/28 02:50:54;;;;;;;17.95;8.32;;;;;;;7.44;100.00;101045.97;4887229;29;20045;-78
2023/04/28 02:53:20;;;;;;;16.95;7.95;;;;;;;7.44;100.00;101050.44;4891441;29;20033;-77
2023/04/28 02:55:46;;;;;;;19.38;8.48;;;;;;;7.41;100.00;101026.91;4886128;29;20037;-79
2023/04/28 02:58:11;;;;;;;18.92;8.25;;;;;;;7.43;100.00;101023.06;4884523;29;20507;-79
2023/04/28 03:00:36;;;;;;;19.10;8.85;;;;;;;7.45;100.00;101030.88;4887993;29;20119;-78
2023/04/28 03:03:02;;;;;;;20.05;8.75;;;;;;;7.43;100.00;101020.41;4885137;29;20040;-79
2023/04/28 03:05:27;;;;;;;17.60;8.77;;;;;;;7.41;100.00;101021.59;4875870;29;20043;-78
2023/04/28 03:07:53;;;;;;;18.52;9.93;;;;;;;7.35;100.00;101012.50;4880342;29;20400;-78
2023/04/28 03:10:18;;;;;;;17.33;8.70;;;;;;;7.45;100.00;101026.38;4878723;29;20481;-78
2023/04/28 03:12:44;;;;;;;17.92;9.15;;;;;;;7.41;100.00;101018.94;4890601;29;20041;-78
2023/04/28 03:15:10;;;;;;;29.13;10.15;;;;;;;7.44;100.00;101022.09;4888567;29;20115;-78
2023/04/28 03:17:37;;;;;;;22.42;10.32;;;;;;;7.47;100.00;101015.63;4866810;29;20080;-78
2023/04/28 03:20:03;;;;;;;18.95;8.63;;;;;;;7.55;100.00;101020.88;4893931;29;20091;-78
2023/04/28 03:22:29;;;;;;;21.45;10.10;;;;;;;7.52;100.00;101015.06;4885214;29;20071;-78
2023/04/28 03:24:55;;;;;;;20.40;8.73;;;;;;;7.61;100.00;101029.97;4864408;29;20489;-78
2023/04/28 03:27:21;;;;;;;19.02;9.43;;;;;;;7.63;100.00;101012.06;4890293;29;20032;-78
2023/04/28 03:29:46;;;;;;;19.77;10.07;;;;;;;7.68;100.00;101017.69;4887062;29;20029;-78
2023/04/28 03:32:12;;;;;;;21.83;9.13;;;;;;;7.67;100.00;101008.88;4887214;29;20585;-78
2023/04/28 03:34:37;;;;;;;20.58;9.30;;;;;;;7.77;100.00;101013.97;4889822;29;20561;-78
2023/04/28 03:37:02;;;;;;;21.38;10.93;;;;;;;7.73;100.00;101009.16;4885396;29;20032;-78
2023/04/28 03:39:28;;;;;;;21.90;11.18;;;;;;;7.75;100.00;101015.13;4891899;29;20056;-78
2023/04/28 03:41:53;;;;;;;17.65;8.80;;;;;;;7.75;100.00;101015.97;4881512;29;20116;-78
2023/04/28 03:44:18;;;;;;;18.50;10.70;;;;;;;7.83;100.00;101015.94;4889784;29;20067;-78
2023/04/28 03:46:44;;;;;;;26.30;11.27;;;;;;;7.80;100.00;101008.31;4894818;29;20033;-78
2023/04/28 03:49:09;;;;;;;20.50;9.98;;;;;;;7.82;100.00;101003.66;4866403;29;20029;-78
2023/04/28 03:51:35;;;;;;;20.40;10.15;;;;;;;7.84;100.00;101003.50;4864602;29;20092;-78
2023/04/28 03:54:00;;;;;;;23.88;9.80;;;;;;;7.86;100.00;100998.84;4892713;29;20067;-78
2023/04/28 03:56:25;;;;;;;21.92;10.65;;;;;;;7.87;100.00;100996.00;4858201;29;20125;-78
2023/04/28 03:58:51;;;;;;;20.58;9.98;;;;;;;7.94;100.00;101003.25;4864884;29;20489;-78
2023/04/28 04:01:16;;;;;;;20.38;10.45;;;;;;;7.96;100.00;101001.25;4877290;29;20122;-78
2023/04/28 04:03:42;;;;;;;21.23;11.10;;;;;;;7.96;100.00;100996.75;4874174;29;20924;-78
2023/04/28 04:06:07;;;;;;;21.00;11.25;;;;;;;7.97;100.00;100994.94;4887884;29;20562;-78
2023/04/28 04:08:33;;;;;;;22.92;12.27;;;;;;;7.95;100.00;100991.63;4883615;29;20032;-78
2023/04/28 04:10:58;;;;;;;20.77;11.32;;;;;;;7.99;100.00;101000.88;4862802;29;20441;-78
2023/04/28 04:13:23;;;;;;;23.05;11.25;;;;;;;7.96;100.00;100998.59;4882939;29;20039;-78
2023/04/28 04:15:51;;;;;;;22.77;11.95;;;;;;;7.99;100.00;100999.09;4880748;29;20037;-78
2023/04/28 04:18:16;;;;;;;22.38;12.10;;;;;;;7.96;100.00;100990.63;4871901;29;20466;-78
2023/04/28 04:20:42;;;;;;;21.88;11.57;;;;;;;8.01;100.00;100990.91;4877829;29;20115;-78
2023/04/28 04:23:07;;;;;;;19.38;11.88;;;;;;;8.00;100.00;100991.94;4867512;29;20037;-78
2023/04/28 04:25:33;;;;;;;22.30;12.05;;;;;;;8.00;100.00;100979.47;4888389;29;20076;-78
2023/04/28 04:27:59;;;;;;;20.98;11.05;;;;;;;7.97;100.00;100979.03;4867997;29;20044;-78
2023/04/28 04:30:24;;;;;;;21.13;10.80;;;;;;;7.96;100.00;100977.34;4880474;29;20029;-78
2023/04/28 04:32:50;;;;;;;20.70;11.02;;;;;;;7.97;100.00;100977.19;4863895;29;20400;-78
2023/04/28 04:35:15;;;;;;;24.20;12.27;;;;;;;8.02;100.00;100981.97;4877486;29;20520;-78
2023/04/28 04:37:40;;;;;;;24.10;12.52;;;;;;;7.98;100.00;100975.34;4891194;29;20036;-78
2023/04/28 04:40:06;;;;;;;20.48;11.48;;;;;;;8.00;100.00;100970.69;4885930;29;20139;-78
2023/04/28 04:42:32;;;;;;;22.88;11.60;;;;;;;8.04;100.00;100977.28;4876300;29;20381;-78
2023/04/28 04:44:57;;;;;;;23.38;11.98;;;;;;;8.08;100.00;100968.78;4862004;29;20037;-78
2023/04/28 04:47:23;;;;;;;20.30;12.05;;;;;;;8.11;100.00;100981.72;4888583;29;20033;-78
2023/04/28 04:49:49;;;;;;;22.98;13.20;;;;;;;8.11;100.00;100976.41;4889149;29;20403;-79
2023/04/28 04:52:14;;;;;;;22.50;13.40;;;;;;;8.09;100.00;100974.94;4861890;29;20063;-79
2023/04/28 04:54:40;;;;;;;23.17;11.93;;;;;;;8.16;100.00;100969.75;4868250;29;20033;-78
2023/04/28 04:57:05;;;;;;;22.75;12.32;;;;;;;8.19;100.00;100970.19;4885203;29;20040;-76
2023/04/28 04:59:31;;;;;;;25.00;13.13;;;;;;;8.19;100.00;100964.88;4888177;29;20119;-76
2023/04/28 05:01:57;;;;;;;22.80;12.00;;;;;;;8.26;100.00;100973.81;4850206;29;20031;-77
2023/04/28 05:04:22;;;;;;;22.88;12.65;;;;;;;8.25;100.00;100952.72;4877704;29;20240;-77
2023/04/28 05:06:47;;;;;;;22.92;13.55;;;;;;;8.30;100.00;100958.31;4884501;29;20035;-76
2023/04/28 05:09:13;;;;;;;31.00;14.27;;;;;;;8.24;100.00;100946.59;4890820;29;20032;-77
2023/04/28 05:11:38;;;;;;;23.42;12.90;;;;;;;8.37;100.00;100961.94;4864412;29;20037;-75
2023/04/28 05:14:03;;;;;;;22.75;14.02;;;;;;;8.38;100.00;100962.75;4881946;29;20067;-76
2023/04/28 05:16:29;;;;;;;23.55;14.32;;;;;;;8.45;100.00;100963.72;4882260;29;20556;-76
2023/04/28 05:18:54;;;;;;;22.75;12.73;;;;;;;8.43;100.00;100955.91;4882131;29;20028;-77
2023/04/28 05:21:20;;;;;;;21.05;12.55;;;;;;;8.51;100.00;100957.66;4886556;29;20400;-76
2023/04/28 05:23:45;;;;;;;22.38;12.30;;;;;;;8.59;100.00;100946.97;4865715;29;20040;-75
2023/04/28 05:26:11;;;;;;;21.33;12.73;;;;;;;8.65;100.00;100956.06;4881839;29;20028;-77
2023/04/28 05:28:38;;;;;;;24.88;14.40;;;;;;;8.65;100.00;100932.97;4882593;29;20028;-76
2023/04/28 05:31:03;;;;;;;22.73;13.55;;;;;;;8.77;100.00;100928.81;4881654;29;20576;-77
2023/04/28 05:33:28;;;;;;;22.27;12.43;;;;;;;8.90;100.00;100919.38;4881918;29;20037;-77
2023/04/28 05:35:54;;;;;;;25.65;14.00;;;;;;;8.99;100.00;100915.63;4882798;29;20043;-77
2023/04/28 05:38:19;;;;;;;21.85;12.65;;;;;;;9.15;100.00;100923.41;4882096;29;20024;-77
2023/04/28 05:40:45;;;;;;;23.38;12.98;;;;;;;9.23;100.00;100929.66;4882376;29;20061;-79
2023/04/28 05:43:10;;;;;;;21.90;12.90;;;;;;;9.26;100.00;100930.09;4883678;29;20381;-79
2023/04/28 05:45:35;;;;;;;24.73;13.43;;;;;;;9.21;100.00;100935.97;4867239;29;20036;-79
2023/04/28 05:48:01;;;;;;;25.58;14.88;;;;;;;9.24;100.00;100947.25;4868736;29;20541;-80
2023/04/28 05:50:26;;;;;;;24.58;12.80;;;;;;;9.24;100.00;100940.09;4885576;29;20048;-77
2023/04/28 05:52:52;;;;;;;23.40;13.07;;;;;;;9.21;100.00;100927.16;4881895;29;20513;-78
2023/04/28 05:55:17;;;;;;;22.65;12.25;;;;;;;9.23;100.00;100927.00;4883549;29;20064;-78
2023/04/28 05:57:43;;;;;;;22.55;12.45;;;;;;;9.37;100.00;100932.25;4884178;29;20063;-78
2023/04/28 06:00:09;;;;;;;22.27;12.60;;;;;;;9.41;100.00;100927.41;4886815;29;20500;-78
2023/04/28 06:02:34;;;;;;;24.42;12.48;;;;;;;9.42;100.00;100937.84;4867672;29;20039;-78
2023/04/28 06:05:00;;;;;;;22.80;12.57;;;;;;;9.44;100.00;100943.81;4884026;29;20052;-79
2023/04/28 06:07:25;;;;;;;22.15;12.90;;;;;;;9.46;100.00;100940.13;4883123;29;20079;-79
2023/04/28 06:09:51;;;;;;;20.08;11.27;;;;;;;9.52;100.00;100944.72;4867398;29;20112;-79
2023/04/28 06:12:16;;;;;;;22.05;12.80;;;;;;;9.61;100.00;100948.91;4887520;29;20157;-78
2023/04/28 06:14:41;;;;;;;20.98;12.27;;;;;;;9.60;100.00;100936.63;4883854;29;20557;-79
2023/04/28 06:17:07;;;;;;;21.42;12.05;;;;;;;9.60;100.00;100929.47;4850141;29;20071;-75
2023/04/28 06:19:33;;;;;;;23.92;12.35;;;;;;;9.63;100.00;100914.94;4849324;29;20036;-74
2023/04/28 06:21:58;;;;;;;20.88;13.38;;;;;;;9.76;100.00;100933.72;4881150;29;20032;-75
2023/04/28 06:24:24;;;;;;;20.02;12.05;;;;;;;9.81;100.00;100943.81;4881596;29;21417;-75
2023/04/28 06:26:49;;;;;;;22.15;11.75;;;;;;;9.87;100.00;100951.03;4882927;29;20044;-76
2023/04/28 06:29:15;;;;;;;21.50;12.27;;;;;;;9.75;100.00;100929.41;4881717;29;20456;-82
2023/04/28 06:31:40;;;;;;;21.98;13.20;;;;;;;9.84;100.00;100932.78;4866356;29;20025;-78
2023/04/28 06:34:07;;;;;;;22.65;13.40;;;;;;;9.91;100.00;100936.34;4872877;29;20033;-78
2023/04/28 06:36:32;;;;;;;20.23;12.00;;;;;;;10.03;100.00;100937.50;4887349;29;20044;-77
2023/04/28 06:38:58;;;;;;;22.65;12.63;;;;;;;10.01;100.00;100915.53;4842174;29;20494;-77
2023/04/28 06:41:23;;;;;;;24.58;15.05;;;;;;;10.19;100.00;100931.06;4866204;29;20057;-77
2023/04/28 06:43:49;;;;;;;24.10;13.43;;;;;;;10.24;100.00;100938.47;4888444;29;20041;-77
2023/04/28 06:46:15;;;;;;;23.75;13.27;;;;;;;10.16;100.00;100923.44;4884842;29;20076;-77
2023/04/28 06:48:40;;;;;;;24.10;13.15;;;;;;;10.15;100.00;100926.31;4886037;29;20068;-78
2023/04/28 06:51:06;;;;;;;19.13;11.80;;;;;;;10.09;100.00;100919.91;4885913;29;20055;-78
2023/04/28 06:53:32;;;;;;;25.25;12.38;;;;;;;10.24;100.00;100918.00;4887053;29;20157;-78
2023/04/28 06:55:57;;;;;;;22.60;11.55;;;;;;;10.48;100.00;100937.28;4870464;29;20032;-78
2023/04/28 06:58:23;;;;;;;20.73;12.95;;;;;;;10.57;100.00;100933.44;4869580;29;20040;-79
2023/04/28 07:00:48;;;;;;;21.10;10.50;;;;;;;10.66;100.00;100928.75;4855482;29;20512;-79
2023/04/28 07:03:14;;;;;;;23.45;11.60;;;;;;;10.71;100.00;100921.00;4888806;29;20451;-80
2023/04/28 07:05:39;;;;;;;24.63;12.18;;;;;;;10.79;100.00;100925.34;4868436;29;20021;-77
2023/04/28 07:08:05;;;;;;;18.60;9.95;;;;;;;10.84;100.00;100918.41;4880343;29;20532;-77
2023/04/28 07:10:30;;;;;;;20.35;10.93;;;;;;;10.92;100.00;100923.59;4880332;29;20504;-77
2023/04/28 07:12:56;;;;;;;20.55;11.60;;;;;;;10.93;100.00;100922.59;4884030;29;20063;-77
2023/04/28 07:15:23;;;;;;;20.48;11.48;;;;;;;10.99;100.00;100920.97;4879574;29;20783;-76
2023/04/28 07:17:48;;;;;;;20.58;11.93;;;;;;;11.07;100.00;100911.97;4863491;29;20080;-72
2023/04/28 07:20:14;;;;;;;20.15;12.57;;;;;;;10.99;100.00;100898.78;4862342;29;20160;-72
2023/04/28 07:22:39;;;;;;;20.13;11.88;;;;;;;11.18;100.00;100906.06;4880521;29;20032;-72
2023/04/28 07:25:05;;;;;;;20.67;11.30;;;;;;;11.34;100.00;100908.41;4879683;29;20481;-72
2023/04/28 07:27:31;;;;;;;20.88;11.70;;;;;;;11.56;100.00;100910.91;4879734;29;20063;-72
2023/04/28 07:29:56;;;;;;;16.90;10.32;;;;;;;11.85;100.00;100905.22;4879467;29;20032;-72
2023/04/28 07:32:22;;;;;;;20.17;10.88;;;;;;;11.99;100.00;100903.41;4879883;29;20033;-74
2023/04/28 07:34:48;;;;;;;18.80;10.55;;;;;;;12.04;100.00;100903.63;4878772;29;20039;-74
2023/04/28 07:37:13;;;;;;;18.40;10.50;;;;;;;11.93;100.00;100896.22;4879298;29;20036;-71
2023/04/28 07:39:40;;;;;;;21.38;10.85;;;;;;;11.92;100.00;100896.41;4878439;29;20072;-71
2023/04/28 07:42:06;;;;;;;21.40;11.27;;;;;;;12.01;100.00;100909.38;4879334;29;20385;-71
2023/04/28 07:44:32;;;;;;;20.95;11.52;;;;;;;12.07;100.00;100913.06;4879770;29;20044;-71
2023/04/28 07:47:01;;;;;;;18.92;10.52;;;;;;;11.99;100.00;100910.59;4883640;29;20045;-71
2023/04/28 07:49:32;;;;;;;16.67;9.93;;;;;;;11.96;100.00;100916.38;5070633;27;1454929;-70
2023/04/28 07:51:57;;;;;;;17.58;10.82;;;;;;;11.94;100.00;100911.22;5116305;28;20043;-70
2023/04/28 07:54:24;;;;;;;19.77;10.38;;;;;;;11.95;100.00;100907.53;5109969;28;20042;-70
2023/04/28 07:56:50;;;;;;;18.60;10.63;;;;;;;12.03;100.00;100912.66;5116416;28;20027;-70
2023/04/28 07:59:15;;;;;;;19.60;11.75;;;;;;;12.14;100.00;100918.44;5117802;27;20080;-70
2023/04/28 08:01:41;;;;;;;17.83;10.43;;;;;;;12.23;100.00;100925.22;5117509;28;20479;-73
2023/04/28 08:04:07;;;;;;;17.15;9.57;;;;;;;12.22;100.00;100911.03;5116223;27;20096;-73
2023/04/28 08:06:32;;;;;;;17.27;10.30;;;;;;;12.22;100.00;100918.22;5113393;28;20475;-74
2023/04/28 08:08:58;;;;;;;18.85;9.65;;;;;;;12.15;100.00;100915.53;5115733;27;20028;-74
2023/04/28 08:11:24;;;;;;;17.52;10.70;;;;;;;12.20;100.00;100925.63;5115181;27;20047;-73
2023/04/28 08:13:49;;;;;;;16.55;9.82;;;;;;;12.20;100.00;100925.63;5115058;27;20035;-73
2023/04/28 08:16:15;;;;;;;16.58;9.57;;;;;;;12.16;100.00;100927.09;5106064;28;20673;-74
2023/04/28 08:18:40;;;;;;;15.52;9.63;;;;;;;12.16;100.00;100921.72;5104055;28;20016;-74
2023/04/28 08:21:06;;;;;;;19.63;9.93;;;;;;;12.22;100.00;100926.25;5104067;28;20031;-74
2023/04/28 08:23:31;;;;;;;21.63;11.02;;;;;;;12.21;100.00;100921.94;5105485;28;20024;-74
2023/04/28 08:25:57;;;;;;;18.58;10.40;;;;;;;12.17;100.00;100924.19;5106621;28;20111;-74
2023/04/28 08:28:23;;;;;;;17.70;11.05;;;;;;;12.07;100.00;100919.25;5106539;28;20040;-74
2023/04/28 08:30:48;;;;;;;18.30;10.65;;;;;;;12.10;100.00;100925.22;5105228;28;20024;-74
2023/04/28 08:33:13;;;;;;;16.73;10.38;;;;;;;12.10;100.00;100907.31;5106643;28;20042;-73
2023/04/28 08:35:39;;;;;;;19.30;10.65;;;;;;;12.18;100.00;100914.31;5088270;28;20039;-74
2023/04/28 08:38:06;;;;;;;16.88;10.25;;;;;;;12.12;100.00;100920.50;5106239;28;20451;-74
2023/04/28 08:40:31;;;;;;;19.73;11.85;;;;;;;12.20;100.00;100922.94;5106467;28;20081;-74
2023/04/28 08:42:58;;;;;;;19.90;11.38;;;;;;;12.21;100.00;100925.44;5104989;28;20031;-72
2023/04/28 08:45:24;;;;;;;17.88;10.38;;;;;;;12.27;100.00;100913.09;5105317;28;20114;-74
2023/04/28 08:47:50;;;;;;;20.58;12.30;;;;;;;12.39;100.00;100921.28;5105630;28;20075;-73
2023/04/28 08:50:20;;;;;;;20.60;12.07;;;;;;;12.39;100.00;100927.50;5103858;28;20035;-74
2023/04/28 08:52:46;;;;;;;21.02;12.23;;;;;;;12.37;100.00;100913.50;5102337;28;20035;-76
2023/04/28 08:55:12;;;;;;;19.75;11.77;;;;;;;12.43;100.00;100914.53;5088331;28;20483;-72
2023/04/28 08:57:47;;;;;;;21.20;11.90;;;;;;;12.55;100.00;100920.88;5104177;28;20032;-74
2023/04/28 09:00:13;;;;;;;21.60;12.48;;;;;;;12.53;100.00;100920.28;5095159;28;20082;-73
2023/04/28 09:02:41;;;;;;;19.90;12.82;;;;;;;12.63;100.00;100915.31;5091982;28;20028;-74
2023/04/28 09:05:07;;;;;;;20.35;12.77;;;;;;;12.75;100.00;100915.47;5091904;28;20390;-74
2023/04/28 09:07:33;;;;;;;19.52;11.43;;;;;;;12.87;100.00;100924.53;5090860;28;20031;-74
2023/04/28 09:10:17;;;;;;;20.27;11.98;;;;;;;12.95;100.00;100928.84;5092161;28;20024;-74
2023/04/28 09:12:43;;;;;;;18.70;12.05;;;;;;;12.86;100.00;100917.53;5091987;28;20058;-74
2023/04/28 09:15:09;;;;;;;19.48;11.93;;;;;;;12.85;100.00;100921.22;5091865;28;20028;-73
2023/04/28 09:17:50;;;;;;;21.50;11.88;;;;;;;12.89;100.00;100925.16;5091880;28;20046;-74
2023/04/28 09:20:23;;;;;;;18.45;10.73;;;;;;;12.79;100.00;100922.09;5090536;28;20028;-74
2023/04/28 09:22:49;;;;;;;20.45;11.48;;;;;;;12.84;100.00;100926.81;5091989;28;20117;-74
2023/04/28 09:25:16;;;;;;;18.35;10.75;;;;;;;12.84;100.00;100913.44;5091858;28;20019;-74
2023/04/28 09:27:41;;;;;;;17.17;10.57;;;;;;;12.87;100.00;100916.50;5091894;28;20147;-74
2023/04/28 09:30:08;;;;;;;20.33;11.18;;;;;;;12.90;100.00;100920.59;5073299;28;20115;-74
2023/04/28 09:32:35;;;;;;;23.80;11.20;;;;;;;12.89;100.00;100917.13;5091655;28;20383;-74
2023/04/28 09:35:01;;;;;;;21.25;12.77;;;;;;;13.00;100.00;100918.31;5091494;28;20039;-74
2023/04/28 09:37:29;;;;;;;20.98;12.38;;;;;;;13.13;100.00;100915.59;5090316;28;20035;-74
2023/04/28 09:39:55;;;;;;;20.48;11.55;;;;;;;13.32;100.00;100916.56;5090147;28;20364;-74
2023/04/28 09:42:37;;;;;;;19.85;12.07;;;;;;;13.35;100.00;100912.63;5091433;28;20028;-74
2023/04/28 09:45:06;;;;;;;23.73;12.80;;;;;;;13.27;100.00;100918.25;5091352;28;20387;-74
2023/04/28 09:47:34;;;;;;;20.10;11.73;;;;;;;13.24;100.00;100919.47;5091309;28;20035;-74
2023/04/28 09:50:05;;;;;;;21.10;12.10;;;;;;;13.24;100.00;100919.47;5091013;28;20145;-74
2023/04/28 09:52:32;;;;;;;19.92;12.25;;;;;;;13.30;100.00;100909.78;5091081;28;20455;-74
2023/04/28 09:55:01;;;;;;;19.02;10.57;;;;;;;13.38;100.00;100920.25;5090982;28;20032;-73
2023/04/28 09:57:30;;;;;;;22.25;11.10;;;;;;;13.31;100.00;100922.97;5091239;28;20028;-74
2023/04/28 09:59:56;;;;;;;22.42;13.48;;;;;;;13.35;100.00;100926.03;5091172;28;20028;-74
2023/04/28 10:02:23;;;;;;;20.63;12.10;;;;;;;13.42;100.00;100923.34;5089853;28;20547;-74
2023/04/28 10:04:49;;;;;;;18.58;10.77;;;;;;;13.37;100.00;100914.06;5089463;28;20471;-74
2023/04/28 10:07:16;;;;;;;24.02;12.20;;;;;;;13.44;100.00;100923.91;5090915;28;20111;-74
2023/04/28 10:09:49;;;;;;;20.23;12.98;;;;;;;13.47;100.00;100926.19;5091065;28;20036;-74
2023/04/28 10:12:20;;;;;;;20.88;12.55;;;;;;;13.47;100.00;100926.19;5090091;28;20439;-74
2023/04/28 10:14:49;;;;;;;20.75;12.02;;;;;;;13.54;100.00;100929.66;5090843;28;20403;-74
2023/04/28 10:17:15;;;;;;;21.17;12.52;;;;;;;13.51;100.00;100924.72;5090585;28;20062;-74
2023/04/28 10:19:43;;;;;;;21.60;12.15;;;;;;;13.55;100.00;100926.75;5091297;28;20078;-74
2023/04/28 10:22:18;;;;;;;21.17;10.85;;;;;;;13.64;100.00;100924.66;5090753;28;20398;-74
2023/04/28 10:25:10;;;;;;;21.55;12.90;;;;;;;13.65;100.00;100920.09;5090545;28;20101;-74
2023/04/28 10:27:41;;;;;;;20.77;10.48;;;;;;;13.64;100.00;100924.66;5090511;28;20028;-74
2023/04/28 10:30:20;;;;;;;18.73;10.32;;;;;;;13.74;100.00;100918.81;5090429;28;20032;-74
2023/04/28 10:32:46;;;;;;;21.27;11.15;;;;;;;13.68;100.00;100923.19;5090533;28;20036;-74
2023/04/28 10:35:21;;;;;;;19.00;10.60;;;;;;;13.64;100.00;100910.44;5090476;28;20023;-74
2023/04/28 10:38:09;;;;;;;22.45;11.75;;;;;;;13.79;100.00;100919.81;5090437;28;20073;-75
2023/04/28 10:40:35;;;;;;;21.27;11.10;;;;;;;13.84;100.00;100921.84;5090271;28;20020;-74
2023/04/28 10:43:01;;;;;;;21.85;12.18;;;;;;;13.91;100.00;100919.09;5090384;28;20060;-74
2023/04/28 10:45:51;;;;;;;23.05;13.25;;;;;;;14.06;100.00;100919.63;5090301;28;20085;-74
2023/04/28 10:48:40;;;;;;;22.80;12.90;;;;;;;14.14;100.00;100913.16;5089907;28;20185;-74
2023/04/28 10:51:06;;;;;;;23.65;14.35;;;;;;;14.25;100.00;100915.13;5089880;28;20088;-74
2023/04/28 10:53:43;;;;;;;25.17;14.23;;;;;;;14.27;100.00;100915.75;5090190;28;20475;-74
2023/04/28 10:56:25;;;;;;;27.15;16.05;;;;;;;14.17;100.00;100910.03;5090041;28;20042;-74
2023/04/28 10:58:52;;;;;;;27.88;16.02;;;;;;;14.12;100.00;100909.88;5090037;28;20425;-74
2023/04/28 11:01:20;;;;;;;32.95;20.35;;;;;;;14.11;100.00;100913.59;5090057;28;20028;-74
2023/04/28 11:03:46;;;;;;;31.20;20.13;;;;;;;14.13;100.00;100922.25;5090015;28;20024;-74
2023/04/28 11:06:27;;;;;;;35.65;21.23;;;;;;;14.12;100.00;100908.03;5089719;28;20032;-74